createdAt,value
2023-05-05T00:01:01.039Z,49.00
2023-05-05T00:03:29.670Z,48.80
2023-05-05T00:05:56.783Z,48.90
2023-05-05T00:08:23.843Z,49.00
2023-05-05T00:10:53.711Z,49.00
2023-05-05T00:13:21.206Z,49.10
2023-05-05T00:15:50.622Z,49.00
2023-05-05T00:18:18.518Z,49.10
2023-05-05T00:20:47.202Z,49.10
2023-05-05T00:23:15.349Z,49.20
2023-05-05T00:25:42.165Z,49.20
2023-05-05T00:30:37.321Z,49.30
2023-05-05T00:33:04.356Z,49.20
2023-05-05T00:35:31.267Z,49.50
2023-05-05T00:37:58.251Z,49.40
2023-05-05T00:40:25.442Z,49.30
2023-05-05T00:42:52.411Z,49.40
2023-05-05T00:45:20.553Z,49.40
2023-05-05T00:47:54.738Z,49.50
2023-05-05T00:50:25.131Z,49.70
2023-05-05T00:52:58.837Z,49.60
2023-05-05T00:55:26.187Z,49.70
2023-05-05T00:57:53.391Z,49.60
2023-05-05T01:00:20.227Z,49.70
2023-05-05T01:02:47.109Z,49.60
2023-05-05T01:05:16.246Z,49.60
2023-05-05T01:08:15.245Z,49.70
2023-05-05T01:10:52.270Z,49.80
2023-05-05T01:14:05.931Z,49.70
2023-05-05T01:16:37.851Z,49.70
2023-05-05T01:19:28.829Z,49.60
2023-05-05T01:22:03.867Z,49.90
2023-05-05T01:25:07.233Z,49.70
2023-05-05T01:28:03.582Z,49.90
2023-05-05T01:31:06.535Z,49.70
2023-05-05T01:33:48.977Z,49.90
2023-05-05T01:36:31.969Z,49.80
2023-05-05T01:39:02.652Z,49.50
2023-05-05T01:41:45.348Z,49.80
2023-05-05T01:44:16.506Z,50.10
2023-05-05T01:46:43.237Z,50.00
2023-05-05T01:49:12.337Z,50.00
2023-05-05T01:51:41.132Z,50.10
2023-05-05T01:54:09.719Z,50.00
2023-05-05T01:56:40.701Z,50.10
2023-05-05T01:59:08.736Z,50.20
2023-05-05T02:01:40.781Z,50.10
2023-05-05T02:04:11.918Z,50.20
2023-05-05T02:06:40.945Z,50.20
2023-05-05T02:09:12.803Z,50.30
2023-05-05T02:11:40.642Z,49.90
2023-05-05T02:14:10.030Z,50.50
2023-05-05T02:16:38.657Z,50.50
2023-05-05T02:19:06.134Z,50.50
2023-05-05T02:21:34.195Z,50.50
2023-05-05T02:24:01.517Z,50.60
2023-05-05T02:26:32.099Z,50.70
2023-05-05T02:29:17.437Z,50.60
2023-05-05T02:31:52.616Z,51.00
2023-05-05T02:34:26.583Z,50.30
2023-05-05T02:36:58.435Z,50.50
2023-05-05T02:39:36.779Z,50.70
2023-05-05T02:42:06.027Z,50.90
2023-05-05T02:44:35.937Z,50.20
2023-05-05T02:47:04.868Z,50.80
2023-05-05T02:49:31.835Z,50.70
2023-05-05T02:51:58.567Z,50.50
2023-05-05T02:54:26.332Z,50.80
2023-05-05T02:56:56.175Z,51.00
2023-05-05T02:59:49.446Z,51.00
2023-05-05T03:02:32.085Z,51.10
2023-05-05T03:05:22.817Z,51.10
2023-05-05T03:08:10.803Z,50.80
2023-05-05T03:10:48.134Z,51.10
2023-05-05T03:13:20.220Z,51.10
2023-05-05T03:15:52.401Z,50.90
2023-05-05T03:18:22.672Z,51.00
2023-05-05T03:20:51.016Z,51.00
2023-05-05T03:23:22.765Z,51.10
2023-05-05T03:25:50.115Z,51.00
2023-05-05T03:28:17.889Z,51.00
2023-05-05T03:30:44.760Z,51.10
2023-05-05T03:33:12.022Z,51.10
2023-05-05T03:35:38.770Z,51.20
2023-05-05T03:38:05.734Z,51.10
2023-05-05T03:40:43.636Z,51.20
2023-05-05T03:43:11.305Z,51.30
2023-05-05T03:45:38.331Z,51.30
2023-05-05T03:48:06.081Z,51.10
2023-05-05T03:50:32.956Z,51.30
2023-05-05T03:52:59.721Z,51.30
2023-05-05T03:55:26.510Z,51.30
2023-05-05T03:57:53.409Z,51.40
2023-05-05T04:00:20.459Z,51.50
2023-05-05T04:02:47.222Z,51.50
2023-05-05T04:05:14.025Z,51.50
2023-05-05T04:07:40.808Z,51.60
2023-05-05T04:10:08.780Z,51.30
2023-05-05T04:12:35.743Z,51.70
2023-05-05T04:15:02.534Z,51.80
2023-05-05T04:17:29.417Z,51.80
2023-05-05T04:19:56.284Z,51.80
2023-05-05T04:22:23.036Z,51.80
2023-05-05T04:24:49.773Z,51.90
2023-05-05T04:27:16.560Z,52.00
2023-05-05T04:29:43.316Z,51.90
2023-05-05T04:32:10.049Z,52.00
2023-05-05T04:34:36.991Z,51.90
2023-05-05T04:37:03.773Z,52.10
2023-05-05T04:39:30.578Z,52.00
2023-05-05T04:41:57.349Z,52.00
2023-05-05T04:44:24.065Z,52.20
2023-05-05T04:46:50.906Z,52.20
2023-05-05T04:49:17.796Z,52.10
2023-05-05T04:51:44.598Z,52.20
2023-05-05T04:54:11.316Z,52.20
2023-05-05T04:56:38.177Z,52.30
2023-05-05T04:59:04.944Z,52.20
2023-05-05T05:01:31.818Z,52.10
2023-05-05T05:03:58.954Z,52.30
2023-05-05T05:06:25.817Z,52.20
2023-05-05T05:08:52.622Z,52.10
2023-05-05T05:11:19.580Z,52.20
2023-05-05T05:13:46.351Z,52.20
2023-05-05T05:16:13.393Z,52.40
2023-05-05T05:18:40.180Z,52.20
2023-05-05T05:21:07.191Z,52.20
2023-05-05T05:23:33.942Z,52.30
2023-05-05T05:26:00.863Z,52.30
2023-05-05T05:28:27.804Z,52.50
2023-05-05T05:30:54.541Z,52.60
2023-05-05T05:33:21.636Z,52.40
2023-05-05T05:35:48.386Z,52.20
2023-05-05T05:38:15.187Z,52.20
2023-05-05T05:40:42.230Z,52.00
2023-05-05T05:43:09.012Z,51.90
2023-05-05T05:45:35.853Z,51.80
2023-05-05T05:48:02.662Z,51.50
2023-05-05T05:50:29.401Z,51.40
2023-05-05T05:52:56.216Z,51.30
2023-05-05T05:55:24.145Z,50.80
2023-05-05T05:57:50.873Z,50.60
2023-05-05T06:00:17.978Z,50.40
2023-05-05T06:02:44.824Z,50.20
2023-05-05T06:05:13.029Z,50.00
2023-05-05T06:07:39.862Z,50.00
2023-05-05T06:10:22.928Z,49.10
2023-05-05T06:12:53.880Z,49.60
2023-05-05T06:15:20.708Z,49.30
2023-05-05T06:17:47.531Z,49.20
2023-05-05T06:20:14.331Z,49.10
2023-05-05T06:22:41.084Z,48.90
2023-05-05T06:25:08.340Z,48.60
2023-05-05T06:27:35.159Z,48.60
2023-05-05T06:30:02.234Z,48.40
2023-05-05T06:32:29.131Z,48.20
2023-05-05T06:34:55.999Z,47.20
2023-05-05T06:37:22.810Z,47.70
2023-05-05T06:39:49.536Z,47.70
2023-05-05T06:42:16.264Z,47.70
2023-05-05T06:44:43.013Z,47.60
2023-05-05T06:47:09.756Z,47.60
2023-05-05T06:49:36.547Z,47.50
2023-05-05T06:52:03.364Z,46.90
2023-05-05T06:54:30.095Z,47.40
2023-05-05T06:56:59.324Z,47.30
2023-05-05T06:59:26.703Z,47.10
2023-05-05T07:01:53.455Z,47.60
2023-05-05T07:04:21.309Z,47.20
2023-05-05T07:06:48.092Z,47.00
2023-05-05T07:09:16.904Z,46.90
2023-05-05T07:14:11.377Z,46.40
2023-05-05T07:16:38.909Z,47.00
2023-05-05T07:26:32.803Z,46.40
2023-05-05T07:28:59.526Z,46.90
2023-05-05T07:31:26.556Z,46.80
2023-05-05T07:33:53.773Z,46.90
2023-05-05T07:36:20.959Z,46.20
2023-05-05T07:38:47.878Z,46.80
2023-05-05T07:41:14.692Z,46.70
2023-05-05T07:43:44.501Z,46.70
2023-05-05T07:46:12.141Z,46.70
2023-05-05T07:48:41.585Z,46.60
2023-05-05T07:51:09.403Z,46.60
2023-05-05T07:53:36.628Z,46.60
2023-05-05T07:56:03.632Z,46.60
2023-05-05T07:58:30.489Z,46.60
2023-05-05T08:00:57.305Z,46.10
2023-05-05T08:03:24.856Z,46.60
2023-05-05T08:05:54.605Z,46.50
2023-05-05T08:08:24.740Z,46.40
2023-05-05T08:10:53.095Z,47.80
2023-05-05T08:13:20.430Z,46.40
2023-05-05T08:15:47.386Z,46.40
2023-05-05T08:18:14.891Z,46.40
2023-05-05T08:20:41.801Z,47.10
2023-05-05T08:23:08.590Z,46.40
2023-05-05T08:25:35.597Z,46.40
2023-05-05T08:28:02.517Z,46.40
2023-05-05T08:30:29.639Z,46.40
2023-05-05T08:32:56.718Z,46.40
2023-05-05T08:35:23.748Z,45.70
2023-05-05T08:37:53.557Z,46.30
2023-05-05T08:40:25.161Z,46.10
2023-05-05T08:42:51.966Z,46.20
2023-05-05T08:45:18.698Z,46.10
2023-05-05T08:47:46.295Z,46.20
2023-05-05T08:50:13.893Z,46.10
2023-05-05T08:52:53.720Z,46.10
2023-05-05T08:55:26.316Z,45.20
2023-05-05T08:57:57.276Z,45.70
2023-05-05T09:00:26.940Z,45.70
2023-05-05T09:02:58.267Z,45.70
2023-05-05T09:05:26.454Z,45.40
2023-05-05T09:07:54.024Z,45.50
2023-05-05T09:10:20.990Z,45.30
2023-05-05T09:12:50.376Z,45.10
2023-05-05T09:15:17.158Z,45.00
2023-05-05T09:17:44.693Z,45.10
2023-05-05T09:20:14.137Z,44.80
2023-05-05T09:22:47.842Z,44.70
2023-05-05T09:25:17.254Z,44.80
2023-05-05T09:27:47.501Z,44.70
2023-05-05T09:30:25.106Z,44.70
2023-05-05T09:32:54.589Z,44.00
2023-05-05T09:35:23.281Z,43.30
2023-05-05T09:37:50.059Z,44.10
2023-05-05T09:40:19.740Z,43.80
2023-05-05T09:42:47.557Z,44.00
2023-05-05T09:45:20.391Z,44.00
2023-05-05T09:47:48.331Z,43.90
2023-05-05T09:50:18.798Z,41.70
2023-05-05T09:53:01.787Z,43.60
2023-05-05T09:55:30.803Z,43.50
2023-05-05T09:58:17.078Z,43.70
2023-05-05T10:00:43.889Z,43.70
2023-05-05T10:03:10.707Z,43.70
2023-05-05T10:05:51.924Z,43.70
2023-05-05T10:08:34.240Z,42.90
2023-05-05T10:11:06.872Z,43.20
2023-05-05T10:13:41.869Z,43.30
2023-05-05T10:16:12.246Z,43.10
2023-05-05T10:18:46.335Z,43.20
2023-05-05T10:21:19.840Z,43.10
2023-05-05T10:23:57.889Z,42.90
2023-05-05T10:26:27.543Z,42.80
2023-05-05T10:29:02.486Z,42.80
2023-05-05T10:31:54.003Z,42.70
2023-05-05T10:34:53.207Z,42.50
2023-05-05T10:37:21.443Z,42.50
2023-05-05T10:39:50.163Z,42.60
2023-05-05T10:42:19.700Z,42.70
2023-05-05T10:44:48.509Z,42.60
2023-05-05T10:47:18.496Z,42.10
2023-05-05T10:49:55.722Z,42.30
2023-05-05T10:52:37.040Z,42.10
2023-05-05T10:55:32.738Z,41.60
2023-05-05T10:57:59.543Z,41.70
2023-05-05T11:00:50.292Z,42.00
2023-05-05T11:03:20.077Z,41.00
2023-05-05T11:06:07.975Z,41.40
2023-05-05T11:08:40.210Z,40.90
2023-05-05T11:11:08.405Z,41.60
2023-05-05T11:13:35.140Z,41.40
2023-05-05T11:16:05.376Z,41.60
2023-05-05T11:18:37.075Z,41.50
2023-05-05T11:21:15.905Z,41.50
2023-05-05T11:23:51.406Z,41.40
2023-05-05T11:26:50.099Z,41.40
2023-05-05T11:29:17.170Z,42.00
2023-05-05T11:31:43.884Z,41.30
2023-05-05T11:34:28.817Z,41.30
2023-05-05T11:37:03.355Z,41.10
2023-05-05T11:39:43.125Z,41.10
2023-05-05T11:42:26.640Z,41.00
2023-05-05T11:44:54.719Z,40.40
2023-05-05T11:47:21.366Z,40.80
2023-05-05T11:49:50.081Z,40.60
2023-05-05T11:52:16.872Z,40.80
2023-05-05T11:54:48.925Z,40.50
2023-05-05T11:57:19.418Z,40.40
2023-05-05T12:00:01.241Z,40.50
2023-05-05T12:02:29.981Z,40.10
2023-05-05T12:04:59.180Z,40.40
2023-05-05T12:07:29.110Z,40.20
2023-05-05T12:09:56.138Z,40.00
2023-05-05T12:12:40.896Z,40.20
2023-05-05T12:15:09.226Z,39.80
2023-05-05T12:17:43.727Z,39.90
2023-05-05T12:20:12.037Z,39.80
2023-05-05T12:22:40.023Z,40.10
2023-05-05T12:25:08.393Z,39.50
2023-05-05T12:27:35.583Z,39.20
2023-05-05T12:30:18.050Z,39.90
2023-05-05T12:32:46.032Z,39.80
2023-05-05T12:35:13.648Z,39.80
2023-05-05T12:37:40.929Z,39.60
2023-05-05T12:40:28.194Z,39.50
2023-05-05T12:42:54.918Z,39.50
2023-05-05T12:45:21.928Z,39.50
2023-05-05T12:47:48.737Z,39.50
2023-05-05T12:50:28.992Z,39.50
2023-05-05T12:52:55.870Z,39.60
2023-05-05T12:55:37.357Z,39.60
2023-05-05T12:58:04.706Z,39.30
2023-05-05T13:00:31.742Z,39.30
2023-05-05T13:02:58.814Z,38.90
2023-05-05T13:05:33.932Z,39.30
2023-05-05T13:08:00.689Z,39.30
2023-05-05T13:10:28.436Z,39.60
2023-05-05T13:12:56.901Z,39.60
2023-05-05T13:15:27.605Z,39.50
2023-05-05T13:18:01.412Z,39.50
2023-05-05T13:20:28.314Z,39.40
2023-05-05T13:22:55.133Z,39.30
2023-05-05T13:25:21.886Z,39.40
2023-05-05T13:30:15.851Z,38.90
2023-05-05T13:32:42.695Z,39.40
2023-05-05T13:35:10.043Z,39.40
2023-05-05T13:37:37.067Z,39.40
2023-05-05T13:40:04.216Z,39.20
2023-05-05T13:42:30.994Z,38.90
2023-05-05T13:44:57.735Z,39.30
2023-05-05T13:47:24.607Z,39.20
2023-05-05T13:49:51.427Z,39.30
2023-05-05T13:54:45.365Z,38.80
2023-05-05T13:57:12.370Z,39.10
2023-05-05T13:59:39.140Z,39.40
2023-05-05T14:02:06.405Z,39.40
2023-05-05T14:04:33.300Z,39.30
2023-05-05T14:07:01.070Z,39.30
2023-05-05T14:09:27.826Z,39.40
2023-05-05T14:11:54.581Z,39.30
2023-05-05T14:14:21.637Z,39.30
2023-05-05T14:16:50.242Z,39.20
2023-05-05T14:19:17.250Z,39.20
2023-05-05T14:21:44.028Z,39.10
2023-05-05T14:24:10.949Z,39.20
2023-05-05T14:26:37.684Z,39.30
2023-05-05T14:31:31.774Z,38.60
2023-05-05T14:33:58.544Z,39.20
2023-05-05T14:36:25.320Z,39.10
2023-05-05T14:38:52.268Z,39.20
2023-05-05T14:41:19.759Z,39.10
2023-05-05T14:43:46.495Z,39.00
2023-05-05T14:46:13.430Z,38.90
2023-05-05T14:48:40.228Z,38.80
2023-05-05T14:51:06.957Z,38.80
2023-05-05T14:53:34.696Z,39.00
2023-05-05T14:56:02.325Z,38.90
2023-05-05T14:58:29.067Z,38.90
2023-05-05T15:00:55.900Z,38.80
2023-05-05T15:03:22.715Z,38.80
2023-05-05T15:05:49.517Z,38.90
2023-05-05T15:08:19.263Z,39.00
2023-05-05T15:10:46.655Z,39.00
2023-05-05T15:13:13.789Z,38.70
2023-05-05T15:15:41.140Z,38.80
2023-05-05T15:18:07.890Z,38.80
2023-05-05T15:20:34.862Z,38.30
2023-05-05T15:23:01.672Z,38.60
2023-05-05T15:25:28.503Z,39.00
2023-05-05T15:27:55.258Z,39.00
2023-05-05T15:30:22.020Z,39.00
2023-05-05T15:32:48.870Z,39.00
2023-05-05T15:35:15.619Z,38.20
2023-05-05T15:37:42.603Z,38.80
2023-05-05T15:40:10.039Z,38.80
2023-05-05T15:42:37.401Z,38.80
2023-05-05T15:45:05.128Z,39.30
2023-05-05T15:47:31.893Z,38.70
2023-05-05T15:49:58.665Z,38.70
2023-05-05T15:52:25.440Z,38.60
2023-05-05T15:54:52.211Z,38.60
2023-05-05T15:57:19.062Z,39.30
2023-05-05T15:59:45.895Z,38.40
2023-05-05T16:02:12.717Z,38.50
2023-05-05T16:04:39.490Z,38.60
2023-05-05T16:07:06.266Z,38.40
2023-05-05T16:09:33.144Z,38.60
2023-05-05T16:11:59.860Z,38.10
2023-05-05T16:14:27.933Z,38.70
2023-05-05T16:16:55.751Z,38.70
2023-05-05T16:19:23.363Z,38.80
2023-05-05T16:21:50.150Z,38.80
2023-05-05T16:24:17.049Z,38.90
2023-05-05T16:26:44.494Z,38.90
2023-05-05T16:29:12.399Z,38.90
2023-05-05T16:31:39.515Z,38.90
2023-05-05T16:34:06.986Z,38.90
2023-05-05T16:36:33.809Z,39.00
2023-05-05T16:39:00.705Z,39.10
2023-05-05T16:41:27.578Z,39.10
2023-05-05T16:43:54.369Z,39.80
2023-05-05T16:46:21.289Z,39.30
2023-05-05T16:48:48.129Z,39.40
2023-05-05T16:51:14.871Z,39.00
2023-05-05T16:53:41.742Z,39.50
2023-05-05T16:56:12.786Z,39.60
2023-05-05T16:58:40.290Z,39.70
2023-05-05T17:01:07.023Z,39.80
2023-05-05T17:03:33.831Z,39.80
2023-05-05T17:06:00.816Z,39.70
2023-05-05T17:08:27.661Z,39.80
2023-05-05T17:10:54.387Z,39.90
2023-05-05T17:13:23.018Z,39.90
2023-05-05T17:15:50.020Z,40.00
2023-05-05T17:18:18.441Z,39.70
2023-05-05T17:20:46.167Z,40.20
2023-05-05T17:23:13.040Z,40.10
2023-05-05T17:25:39.798Z,39.60
2023-05-05T17:28:07.476Z,40.30
2023-05-05T17:30:34.267Z,40.40
2023-05-05T17:33:01.171Z,40.50
2023-05-05T17:35:28.104Z,40.60
2023-05-05T17:37:54.873Z,40.70
2023-05-05T17:40:21.854Z,40.70
2023-05-05T17:42:48.611Z,40.80
2023-05-05T17:45:15.468Z,40.80
2023-05-05T17:47:42.370Z,40.90
2023-05-05T17:50:11.006Z,41.10
2023-05-05T17:52:38.029Z,41.20
2023-05-05T17:55:05.210Z,41.50
2023-05-05T17:57:32.002Z,41.70
2023-05-05T17:59:58.724Z,41.60
2023-05-05T18:02:25.654Z,41.90
2023-05-05T18:04:52.484Z,42.00
2023-05-05T18:07:19.206Z,41.60
2023-05-05T18:09:45.922Z,42.20
2023-05-05T18:12:12.712Z,42.30
2023-05-05T18:14:39.501Z,42.50
2023-05-05T18:17:06.273Z,42.80
2023-05-05T18:19:33.032Z,42.80
2023-05-05T18:21:59.801Z,42.90
2023-05-05T18:24:27.478Z,43.60
2023-05-05T18:26:54.311Z,43.20
2023-05-05T18:29:22.111Z,43.20
2023-05-05T18:31:52.032Z,43.30
2023-05-05T18:34:20.466Z,43.40
2023-05-05T18:36:48.167Z,43.80
2023-05-05T18:39:15.197Z,43.80
2023-05-05T18:41:42.104Z,43.80
2023-05-05T18:44:08.893Z,44.00
2023-05-05T18:46:35.672Z,44.10
2023-05-05T18:49:03.558Z,44.10
2023-05-05T18:51:30.682Z,44.30
2023-05-05T18:53:57.681Z,44.30
2023-05-05T18:56:24.423Z,44.40
2023-05-05T18:58:51.195Z,44.40
2023-05-05T19:01:17.989Z,44.50
2023-05-05T19:03:48.290Z,44.70
2023-05-05T19:06:15.976Z,45.00
2023-05-05T19:08:43.994Z,44.80
2023-05-05T19:11:10.835Z,44.80
2023-05-05T19:16:11.275Z,45.00
2023-05-05T19:18:38.819Z,45.10
2023-05-05T19:21:05.916Z,45.00
2023-05-05T19:23:33.287Z,45.20
2023-05-05T19:26:00.127Z,45.20
2023-05-05T19:28:26.963Z,45.30
2023-05-05T19:30:53.785Z,45.40
2023-05-05T19:33:20.631Z,45.50
2023-05-05T19:35:47.429Z,45.40
2023-05-05T19:38:14.299Z,45.60
2023-05-05T19:40:41.432Z,45.50
2023-05-05T19:43:08.192Z,45.70
2023-05-05T19:45:35.137Z,45.90
2023-05-05T19:48:02.704Z,45.90
2023-05-05T19:50:30.584Z,46.20
2023-05-05T19:52:57.859Z,46.20
2023-05-05T19:55:25.042Z,46.20
2023-05-05T19:57:51.773Z,46.90
2023-05-05T20:00:19.615Z,46.50
2023-05-05T20:02:47.245Z,46.50
2023-05-05T20:05:16.251Z,46.80
2023-05-05T20:07:44.266Z,46.30
2023-05-05T20:10:13.247Z,46.30
2023-05-05T20:12:47.607Z,46.70
2023-05-05T20:15:20.599Z,46.80
2023-05-05T20:17:48.076Z,46.90
2023-05-05T20:20:22.513Z,47.00
2023-05-05T20:22:49.659Z,47.10
2023-05-05T20:25:16.685Z,46.90
2023-05-05T20:27:45.257Z,47.10
2023-05-05T20:30:12.559Z,47.00
2023-05-05T20:32:39.649Z,47.00
2023-05-05T20:35:07.298Z,46.60
2023-05-05T20:37:34.237Z,47.00
2023-05-05T20:40:01.085Z,46.90
2023-05-05T20:42:28.025Z,47.20
2023-05-05T20:44:54.982Z,47.10
2023-05-05T20:47:21.743Z,47.20
2023-05-05T20:49:48.571Z,47.10
2023-05-05T20:52:15.639Z,47.20
2023-05-05T20:54:42.407Z,47.40
2023-05-05T20:57:09.250Z,47.50
2023-05-05T20:59:35.996Z,47.50
2023-05-05T21:02:02.783Z,47.40
2023-05-05T21:04:29.655Z,47.70
2023-05-05T21:06:57.436Z,47.60
2023-05-05T21:09:24.364Z,47.70
2023-05-05T21:11:51.135Z,47.80
2023-05-05T21:16:45.104Z,47.20
2023-05-05T21:19:11.957Z,47.70
2023-05-05T21:21:38.733Z,48.00
2023-05-05T21:24:07.917Z,48.00
2023-05-05T21:26:35.094Z,48.20
2023-05-05T21:29:01.877Z,48.40
2023-05-05T21:31:28.627Z,48.30
2023-05-05T21:33:55.471Z,48.20
2023-05-05T21:36:22.289Z,48.20
2023-05-05T21:38:49.478Z,47.60
2023-05-05T21:41:16.721Z,48.10
2023-05-05T21:43:43.581Z,48.00
2023-05-05T21:46:10.383Z,48.10
2023-05-05T21:48:38.977Z,48.40
2023-05-05T21:51:06.732Z,48.30
2023-05-05T21:53:33.532Z,47.70
2023-05-05T21:56:00.926Z,48.30
2023-05-05T21:58:27.730Z,48.30
2023-05-05T22:00:54.560Z,48.10
2023-05-05T22:03:21.475Z,48.10
2023-05-05T22:05:48.241Z,48.30
2023-05-05T22:08:15.030Z,48.40
2023-05-05T22:10:41.839Z,48.40
2023-05-05T22:13:10.412Z,48.40
2023-05-05T22:15:46.212Z,48.50
2023-05-05T22:18:14.037Z,48.50
2023-05-05T22:20:40.912Z,48.40
2023-05-05T22:23:07.719Z,48.50
2023-05-05T22:25:34.457Z,48.60
2023-05-05T22:28:01.250Z,48.70
2023-05-05T22:30:28.007Z,48.90
2023-05-05T22:32:55.226Z,49.00
2023-05-05T22:35:22.181Z,48.90
2023-05-05T22:37:49.010Z,49.00
2023-05-05T22:40:15.850Z,49.30
2023-05-05T22:42:42.604Z,49.40
2023-05-05T22:45:10.378Z,49.70
2023-05-05T22:47:37.521Z,49.90
2023-05-05T22:50:04.556Z,49.50
2023-05-05T22:52:31.490Z,49.80
2023-05-05T22:57:25.624Z,49.20
2023-05-05T22:59:52.542Z,50.20
2023-05-05T23:02:19.410Z,49.90
2023-05-05T23:04:46.254Z,49.80
2023-05-05T23:07:13.523Z,50.20
2023-05-05T23:09:40.857Z,50.30
2023-05-05T23:12:07.676Z,50.50
2023-05-05T23:14:35.270Z,50.50
2023-05-05T23:17:02.202Z,50.80
2023-05-05T23:19:32.007Z,51.20
2023-05-05T23:21:59.696Z,50.80
2023-05-05T23:24:27.694Z,51.00
2023-05-05T23:26:56.647Z,50.90
2023-05-05T23:29:23.391Z,51.10
2023-05-05T23:31:50.151Z,51.50
2023-05-05T23:34:17.186Z,51.60
2023-05-05T23:36:43.944Z,51.60
2023-05-05T23:39:11.050Z,51.70
2023-05-05T23:41:37.815Z,51.90
2023-05-05T23:44:04.632Z,52.10
2023-05-05T23:46:31.461Z,52.30
2023-05-05T23:48:58.198Z,52.40
2023-05-05T23:51:25.177Z,52.50
2023-05-05T23:56:20.284Z,52.10
2023-05-05T23:58:47.044Z,53.30
